Time;durP1;ratioP1;P1;durP2;ratioP2;P2;SDS_P1;SDS_P2;PMS_P1;PMS_P2;Temp;Humidity;BMP_temperature;BMP_pressure;BME280_temperature;BME280_humidity;BME280_pressure;Samples;Min_cycle;Max_cycle;Signal;HPM_P1;HPM_P2
2023/03/06 00:00:08;;;;;;;12.93;11.33;;;5.40;81.90;;;;;;5035936;28;20421;-42
2023/03/06 00:02:34;;;;;;;16.10;11.13;;;5.30;64.80;;;;;;5036491;28;20901;-42
2023/03/06 00:05:00;;;;;;;14.73;11.07;;;5.30;50.10;;;;;;5035213;28;20507;-41
2023/03/06 00:07:25;;;;;;;12.80;10.10;;;5.30;44.90;;;;;;5036446;28;20178;-42
2023/03/06 00:09:51;;;;;;;15.13;11.43;;;5.20;49.30;;;;;;5035097;28;20194;-41
2023/03/06 00:12:17;;;;;;;14.17;11.13;;;5.20;56.50;;;;;;5034850;28;20186;-41
2023/03/06 00:14:42;;;;;;;14.97;11.87;;;5.20;56.30;;;;;;5035654;28;20187;-41
2023/03/06 00:17:08;;;;;;;12.73;11.33;;;5.10;53.90;;;;;;5035741;28;20600;-41
2023/03/06 00:19:33;;;;;;;15.10;11.40;;;5.10;54.60;;;;;;5036386;28;20194;-42
2023/03/06 00:21:59;;;;;;;14.20;11.10;;;5.10;52.70;;;;;;5037472;28;20218;-40
2023/03/06 00:24:25;;;;;;;13.87;12.50;;;5.10;50.90;;;;;;5037959;28;20174;-41
2023/03/06 00:26:50;;;;;;;15.17;12.10;;;5.10;47.30;;;;;;5038782;28;20178;-42
2023/03/06 00:29:16;;;;;;;15.40;11.97;;;5.10;44.50;;;;;;5038453;28;20315;-41
2023/03/06 00:31:45;;;;;;;15.07;11.90;;;5.10;43.50;;;;;;5037371;28;20186;-41
2023/03/06 00:34:10;;;;;;;12.00;10.80;;;5.10;39.60;;;;;;5038093;28;20240;-42
2023/03/06 00:36:36;;;;;;;14.47;10.90;;;5.00;39.90;;;;;;5038399;28;20436;-43
2023/03/06 00:39:03;;;;;;;13.90;10.50;;;5.00;38.50;;;;;;5038065;28;20187;-42
2023/03/06 00:41:28;;;;;;;15.27;11.23;;;5.00;40.30;;;;;;5037743;28;20464;-43
2023/03/06 00:43:54;;;;;;;13.60;11.27;;;5.00;39.80;;;;;;5037796;28;20457;-42
2023/03/06 00:46:19;;;;;;;14.37;10.80;;;5.00;39.80;;;;;;5038097;28;20222;-41
2023/03/06 00:48:45;;;;;;;13.20;10.10;;;5.00;36.10;;;;;;5037387;28;20241;-42
2023/03/06 00:51:11;;;;;;;15.10;10.87;;;5.00;36.60;;;;;;5037751;28;20217;-41
2023/03/06 00:53:36;;;;;;;14.57;11.03;;;5.00;39.90;;;;;;5037731;28;20216;-41
2023/03/06 00:56:02;;;;;;;13.50;10.80;;;5.00;42.00;;;;;;5037702;28;20214;-44
2023/03/06 00:58:27;;;;;;;14.50;12.03;;;5.00;40.60;;;;;;5036410;28;20270;-43
2023/03/06 01:00:53;;;;;;;15.67;12.07;;;5.00;42.50;;;;;;5036359;28;20389;-42
2023/03/06 01:03:19;;;;;;;13.30;10.97;;;5.00;43.90;;;;;;5037468;28;20285;-41
2023/03/06 01:05:44;;;;;;;16.20;11.87;;;5.00;41.70;;;;;;5037069;28;20174;-45
2023/03/06 01:08:10;;;;;;;17.73;12.80;;;5.00;40.80;;;;;;5037404;28;20175;-42
2023/03/06 01:10:39;;;;;;;17.53;13.07;;;5.00;41.90;;;;;;5037637;28;20278;-43
2023/03/06 01:13:05;;;;;;;17.67;13.10;;;5.00;43.70;;;;;;5037618;28;20174;-41
2023/03/06 01:15:31;;;;;;;14.80;11.67;;;4.90;49.00;;;;;;5036541;28;20731;-42
2023/03/06 01:17:57;;;;;;;18.50;12.53;;;4.90;53.60;;;;;;5037252;28;20422;-42
2023/03/06 01:20:22;;;;;;;17.10;14.70;;;4.90;55.60;;;;;;5037112;28;20500;-43
2023/03/06 01:22:48;;;;;;;19.77;13.90;;;4.90;61.20;;;;;;5036883;28;20202;-41
2023/03/06 01:25:14;;;;;;;21.67;15.10;;;4.90;71.90;;;;;;5035342;28;20193;-42
2023/03/06 01:27:39;;;;;;;16.60;13.87;;;4.90;79.90;;;;;;5034472;28;20254;-43
2023/03/06 01:30:06;;;;;;;21.20;13.37;;;4.80;92.10;;;;;;5034527;28;20221;-41
2023/03/06 01:32:32;;;;;;;19.00;14.67;;;4.80;99.90;;;;;;5034889;28;20553;-43
2023/03/06 01:34:57;;;;;;;20.27;15.13;;;4.80;99.90;;;;;;5035680;28;20870;-42
2023/03/06 01:37:23;;;;;;;19.93;15.27;;;4.80;99.90;;;;;;5035536;28;20646;-43
2023/03/06 01:39:48;;;;;;;18.73;14.10;;;4.80;99.90;;;;;;5036502;28;20193;-42
2023/03/06 01:42:15;;;;;;;20.07;13.40;;;4.70;99.90;;;;;;5037127;28;20329;-42
2023/03/06 01:45:00;;;;;;;16.20;13.90;;;4.70;99.90;;;;;;5037244;28;20243;-41
2023/03/06 01:47:26;;;;;;;20.57;13.67;;;4.70;99.90;;;;;;5037148;28;20870;-42
2023/03/06 01:49:52;;;;;;;18.87;13.33;;;4.70;99.90;;;;;;5035365;28;20425;-41
2023/03/06 01:52:21;;;;;;;17.07;13.40;;;4.70;99.90;;;;;;5036628;28;20209;-42
2023/03/06 01:54:59;;;;;;;20.03;14.80;;;4.70;99.90;;;;;;5036143;28;20420;-42
2023/03/06 01:57:33;;;;;;;17.23;13.17;;;4.70;99.90;;;;;;5036233;28;20808;-44
2023/03/06 02:00:06;;;;;;;17.40;14.10;;;4.70;99.90;;;;;;5036469;28;20429;-44
2023/03/06 02:02:32;;;;;;;18.27;14.47;;;4.70;99.90;;;;;;5019528;28;20988;-42
2023/03/06 02:04:59;;;;;;;16.33;13.40;;;4.70;99.90;;;;;;5036180;28;20425;-42
2023/03/06 02:07:24;;;;;;;16.83;13.00;;;4.70;99.90;;;;;;5034958;28;20233;-42
2023/03/06 02:09:50;;;;;;;18.10;13.50;;;4.70;99.90;;;;;;5034860;28;20457;-41
2023/03/06 02:12:18;;;;;;;15.60;13.37;;;4.70;99.90;;;;;;5037096;28;20212;-44
2023/03/06 02:14:44;;;;;;;15.67;13.47;;;4.70;99.90;;;;;;5037259;28;20190;-41
2023/03/06 02:17:12;;;;;;;19.00;14.80;;;4.70;99.90;;;;;;5039056;28;20421;-42
2023/03/06 02:20:15;;;;;;;18.60;13.70;;;4.70;99.90;;;;;;5040247;28;20436;-43
2023/03/06 02:23:05;;;;;;;18.93;13.47;;;4.70;99.90;;;;;;5040316;28;20464;-44
2023/03/06 02:25:36;;;;;;;16.63;12.97;;;4.70;99.90;;;;;;5040411;28;20428;-40
2023/03/06 02:28:04;;;;;;;18.90;13.70;;;4.70;99.90;;;;;;5040775;28;20421;-41
2023/03/06 02:30:30;;;;;;;16.60;13.50;;;4.70;99.90;;;;;;5040484;28;20743;-43
2023/03/06 02:32:56;;;;;;;17.93;14.47;;;4.70;99.90;;;;;;5040850;28;20476;-42
2023/03/06 02:35:29;;;;;;;15.97;13.00;;;4.70;99.90;;;;;;5040573;28;20417;-42
2023/03/06 02:37:56;;;;;;;17.30;12.80;;;4.80;99.90;;;;;;5040725;28;20428;-45
2023/03/06 02:40:23;;;;;;;16.03;12.63;;;4.70;99.90;;;;;;5022919;28;20441;-42
2023/03/06 02:42:54;;;;;;;18.93;12.60;;;4.70;99.90;;;;;;5040216;28;20472;-42
2023/03/06 02:45:25;;;;;;;16.73;13.07;;;4.70;99.90;;;;;;5038810;28;20421;-42
2023/03/06 02:47:50;;;;;;;16.50;12.47;;;4.70;99.90;;;;;;5037487;28;20425;-42
2023/03/06 02:50:16;;;;;;;15.50;11.97;;;4.70;99.90;;;;;;5038486;28;20868;-42
2023/03/06 02:52:42;;;;;;;15.40;11.80;;;4.80;99.90;;;;;;5038655;28;20178;-43
2023/03/06 02:55:08;;;;;;;18.00;13.17;;;4.80;99.90;;;;;;5039188;28;20417;-41
2023/03/06 02:57:33;;;;;;;16.30;12.13;;;4.80;99.90;;;;;;5038612;28;20193;-42
2023/03/06 02:59:59;;;;;;;15.27;12.60;;;4.80;99.90;;;;;;5038967;28;20509;-42
2023/03/06 03:02:25;;;;;;;17.70;13.10;;;4.80;99.90;;;;;;5039075;28;20563;-43
2023/03/06 03:04:50;;;;;;;15.43;12.60;;;4.80;99.90;;;;;;5038712;28;20189;-42
2023/03/06 03:07:16;;;;;;;19.27;13.30;;;4.70;99.90;;;;;;5037863;28;20182;-42
2023/03/06 03:09:41;;;;;;;19.40;15.70;;;4.70;99.90;;;;;;5038269;28;20437;-43
2023/03/06 03:12:07;;;;;;;24.50;16.80;;;4.70;99.90;;;;;;5038107;28;20186;-42
2023/03/06 03:14:33;;;;;;;27.40;21.63;;;4.70;99.90;;;;;;5038415;28;20199;-44
2023/03/06 03:16:59;;;;;;;23.93;19.00;;;4.70;99.90;;;;;;5038873;28;20889;-42
2023/03/06 03:19:25;;;;;;;20.10;15.30;;;4.70;99.90;;;;;;5037869;28;20313;-42
2023/03/06 03:21:50;;;;;;;19.27;13.00;;;4.70;99.90;;;;;;5039390;28;20626;-43
2023/03/06 03:24:16;;;;;;;17.60;12.13;;;4.60;99.90;;;;;;5039222;28;20533;-41
2023/03/06 03:26:42;;;;;;;16.30;12.70;;;4.60;99.90;;;;;;5038642;28;20175;-44
2023/03/06 03:29:09;;;;;;;14.20;11.30;;;4.60;99.90;;;;;;5038840;28;20197;-42
2023/03/06 03:31:35;;;;;;;14.57;12.53;;;4.60;99.90;;;;;;5039423;28;20441;-42
2023/03/06 03:34:01;;;;;;;15.17;11.80;;;4.60;99.90;;;;;;5039116;28;20503;-42
2023/03/06 03:36:27;;;;;;;16.60;12.30;;;4.60;99.90;;;;;;5039461;28;20571;-42
2023/03/06 03:38:53;;;;;;;15.33;11.70;;;4.60;99.90;;;;;;5039252;28;20696;-46
2023/03/06 03:41:18;;;;;;;14.90;12.00;;;4.60;99.90;;;;;;5039152;28;20221;-42
2023/03/06 03:43:44;;;;;;;14.53;12.33;;;4.60;99.90;;;;;;5039052;28;20421;-42
2023/03/06 03:46:10;;;;;;;14.93;13.07;;;4.60;99.90;;;;;;5039203;28;20529;-43
2023/03/06 03:48:36;;;;;;;14.47;12.90;;;4.60;99.90;;;;;;5039229;28;20285;-42
2023/03/06 03:51:09;;;;;;;16.17;12.20;;;4.60;99.90;;;;;;5039583;28;20183;-41
2023/03/06 03:53:35;;;;;;;17.80;11.90;;;4.60;99.90;;;;;;5040493;28;20256;-42
2023/03/06 03:56:01;;;;;;;15.93;12.30;;;4.50;99.90;;;;;;5039604;28;20672;-43
2023/03/06 03:58:26;;;;;;;15.07;12.47;;;4.50;99.90;;;;;;5039412;28;20312;-41
2023/03/06 04:00:52;;;;;;;15.97;12.27;;;4.50;99.90;;;;;;5038534;28;20194;-41
2023/03/06 04:03:18;;;;;;;14.70;12.20;;;4.50;99.90;;;;;;5039026;28;20248;-43
2023/03/06 04:05:43;;;;;;;14.70;12.07;;;4.50;99.90;;;;;;5037945;28;20174;-41
2023/03/06 04:08:09;;;;;;;17.13;11.57;;;4.50;99.90;;;;;;5036754;28;20179;-41
2023/03/06 04:10:35;;;;;;;15.70;11.87;;;4.50;99.90;;;;;;5036467;28;20185;-42
2023/03/06 04:13:01;;;;;;;16.73;12.33;;;4.50;99.90;;;;;;5036520;28;20175;-42
2023/03/06 04:15:27;;;;;;;14.03;11.77;;;4.50;99.90;;;;;;5035591;28;20444;-42
2023/03/06 04:17:52;;;;;;;12.00;10.27;;;4.50;99.90;;;;;;5035915;28;20230;-42
2023/03/06 04:20:18;;;;;;;12.90;11.50;;;4.40;99.90;;;;;;5037352;28;20182;-42
2023/03/06 04:22:44;;;;;;;15.33;12.10;;;4.40;99.90;;;;;;5038610;28;20214;-41
2023/03/06 04:25:09;;;;;;;14.27;11.87;;;4.40;99.90;;;;;;5036326;28;20616;-42
2023/03/06 04:27:35;;;;;;;14.70;12.10;;;4.40;99.90;;;;;;5036867;28;20201;-42
2023/03/06 04:30:01;;;;;;;14.40;11.37;;;4.40;99.90;;;;;;5036033;28;20237;-43
2023/03/06 04:32:26;;;;;;;13.87;11.47;;;4.40;99.90;;;;;;5037460;28;20242;-44
2023/03/06 04:34:52;;;;;;;16.00;12.80;;;4.40;99.90;;;;;;5036589;28;20190;-42
2023/03/06 04:37:23;;;;;;;14.20;11.70;;;4.40;99.90;;;;;;5038065;28;20238;-42
2023/03/06 04:39:49;;;;;;;16.43;12.43;;;4.40;99.90;;;;;;5037516;28;20269;-43
2023/03/06 04:42:15;;;;;;;13.37;11.97;;;4.40;99.90;;;;;;5036465;28;20490;-42
2023/03/06 04:44:40;;;;;;;14.80;12.27;;;4.40;99.90;;;;;;5034585;28;20417;-43
2023/03/06 04:47:06;;;;;;;14.53;11.50;;;4.40;99.90;;;;;;5034661;28;20402;-42
2023/03/06 04:49:32;;;;;;;12.13;10.37;;;4.40;99.90;;;;;;5035201;28;20185;-42
2023/03/06 04:51:57;;;;;;;12.57;11.23;;;4.40;99.90;;;;;;5033784;28;20221;-42
2023/03/06 04:54:23;;;;;;;13.13;10.80;;;4.30;99.90;;;;;;5018237;28;20648;-42
2023/03/06 04:56:49;;;;;;;14.00;10.93;;;4.30;99.90;;;;;;5037116;28;20392;-41
2023/03/06 04:59:14;;;;;;;14.70;11.63;;;4.30;99.90;;;;;;5037052;28;20225;-42
2023/03/06 05:01:40;;;;;;;14.77;11.50;;;4.30;99.90;;;;;;5037628;28;20309;-40
2023/03/06 05:04:06;;;;;;;14.60;10.70;;;4.30;99.90;;;;;;5036987;28;20182;-41
2023/03/06 05:06:31;;;;;;;13.57;10.23;;;4.30;99.90;;;;;;5037434;28;20178;-41
2023/03/06 05:08:57;;;;;;;13.77;11.73;;;4.20;99.90;;;;;;5036415;28;20500;-40
2023/03/06 05:11:23;;;;;;;13.23;10.50;;;4.20;99.90;;;;;;5037381;28;20583;-41
2023/03/06 05:13:49;;;;;;;13.30;11.17;;;4.20;99.90;;;;;;5035533;28;20213;-41
2023/03/06 05:16:14;;;;;;;15.10;11.17;;;4.20;99.90;;;;;;5032482;28;20186;-40
2023/03/06 05:18:40;;;;;;;15.10;10.90;;;4.20;99.90;;;;;;5032098;28;20520;-42
2023/03/06 05:21:06;;;;;;;13.13;10.03;;;4.20;99.90;;;;;;5032774;28;20232;-41
2023/03/06 05:23:33;;;;;;;12.80;10.93;;;4.20;99.90;;;;;;5033649;28;20413;-41
2023/03/06 05:25:59;;;;;;;12.87;10.67;;;4.20;99.90;;;;;;5032745;28;20208;-40
2023/03/06 05:28:25;;;;;;;14.47;11.87;;;4.20;99.90;;;;;;5032253;28;20770;-42
2023/03/06 05:30:51;;;;;;;13.00;10.57;;;4.20;99.90;;;;;;5032458;28;20260;-41
2023/03/06 05:33:16;;;;;;;17.70;12.30;;;4.20;99.90;;;;;;5031967;28;20543;-41
2023/03/06 05:35:46;;;;;;;13.07;10.33;;;4.20;99.90;;;;;;5033183;28;20181;-41
2023/03/06 05:38:13;;;;;;;13.50;10.70;;;4.10;99.90;;;;;;5033785;28;20274;-41
2023/03/06 05:40:40;;;;;;;17.70;11.63;;;4.20;99.90;;;;;;5032076;28;20405;-41
2023/03/06 05:43:07;;;;;;;13.93;11.17;;;4.10;99.90;;;;;;5032924;28;20417;-41
2023/03/06 05:45:33;;;;;;;15.10;11.67;;;4.20;99.90;;;;;;5032941;28;20460;-41
2023/03/06 05:47:59;;;;;;;11.90;9.77;;;4.20;99.90;;;;;;5031653;28;20418;-42
2023/03/06 05:50:24;;;;;;;14.40;10.53;;;4.20;99.90;;;;;;5034489;28;20487;-43
2023/03/06 05:52:50;;;;;;;14.10;10.40;;;4.20;99.90;;;;;;5036505;28;20261;-41
2023/03/06 05:55:18;;;;;;;13.87;11.60;;;4.20;99.90;;;;;;5035311;28;20180;-42
2023/03/06 05:57:44;;;;;;;13.40;10.67;;;4.20;99.90;;;;;;5034719;28;20254;-42
2023/03/06 06:00:10;;;;;;;13.70;10.63;;;4.20;99.90;;;;;;5034132;28;20765;-43
2023/03/06 06:02:36;;;;;;;13.20;10.50;;;4.20;99.90;;;;;;5033235;28;20260;-42
2023/03/06 06:05:02;;;;;;;14.83;11.23;;;4.20;99.90;;;;;;5034978;28;20417;-42
2023/03/06 06:07:28;;;;;;;17.23;11.63;;;4.20;99.90;;;;;;5031909;28;20259;-43
2023/03/06 06:09:54;;;;;;;14.33;11.70;;;4.20;99.90;;;;;;5033092;28;20424;-43
2023/03/06 06:12:20;;;;;;;15.30;11.30;;;4.20;99.90;;;;;;5032447;28;20174;-43
2023/03/06 06:14:45;;;;;;;13.73;11.23;;;4.20;99.90;;;;;;5032032;28;20756;-42
2023/03/06 06:17:11;;;;;;;17.13;11.90;;;4.20;99.90;;;;;;5033146;28;20214;-42
2023/03/06 06:19:37;;;;;;;15.53;12.00;;;4.20;99.90;;;;;;5034064;28;20194;-42
2023/03/06 06:22:03;;;;;;;15.30;12.23;;;4.20;99.90;;;;;;5033294;28;21057;-42
2023/03/06 06:24:30;;;;;;;15.67;12.50;;;4.20;99.90;;;;;;5032144;28;20483;-42
2023/03/06 06:26:57;;;;;;;14.13;11.63;;;4.20;99.90;;;;;;5031578;28;20425;-40
2023/03/06 06:29:23;;;;;;;16.07;12.20;;;4.20;99.90;;;;;;5029495;28;20483;-41
2023/03/06 06:31:49;;;;;;;16.53;11.37;;;4.20;99.90;;;;;;5027425;28;20735;-42
2023/03/06 06:34:15;;;;;;;15.57;11.77;;;4.20;99.90;;;;;;5032652;28;20453;-42
2023/03/06 06:36:41;;;;;;;16.13;12.30;;;4.20;99.90;;;;;;5028655;28;20196;-42
2023/03/06 06:39:07;;;;;;;16.97;13.20;;;4.30;99.90;;;;;;5028668;28;20468;-42
2023/03/06 06:41:33;;;;;;;18.20;14.83;;;4.30;99.90;;;;;;5032664;28;20202;-41
2023/03/06 06:43:59;;;;;;;18.40;13.33;;;4.30;99.90;;;;;;5035064;28;20424;-41
2023/03/06 06:46:26;;;;;;;15.43;12.50;;;4.30;99.90;;;;;;5033895;28;20429;-42
2023/03/06 06:48:55;;;;;;;14.37;11.73;;;4.30;99.90;;;;;;5029809;28;20281;-40
2023/03/06 06:51:21;;;;;;;15.97;11.90;;;4.40;99.90;;;;;;5031108;28;20922;-41
2023/03/06 06:53:50;;;;;;;17.27;13.43;;;4.40;99.90;;;;;;5032220;28;20464;-40
2023/03/06 06:56:15;;;;;;;16.20;12.40;;;4.40;99.90;;;;;;5034570;28;20715;-40
2023/03/06 06:58:41;;;;;;;16.33;11.43;;;4.40;99.90;;;;;;5034102;28;20489;-42
2023/03/06 07:01:08;;;;;;;15.50;11.50;;;4.40;99.90;;;;;;5032856;28;20217;-42
2023/03/06 07:03:34;;;;;;;15.30;12.67;;;4.50;99.90;;;;;;5034021;28;20268;-42
2023/03/06 07:06:00;;;;;;;17.23;11.90;;;4.50;99.90;;;;;;5032422;28;20782;-42
2023/03/06 07:08:25;;;;;;;13.50;11.70;;;4.50;99.90;;;;;;5048118;28;20436;-41
2023/03/06 07:10:51;;;;;;;16.17;12.00;;;4.60;99.90;;;;;;5035265;28;20174;-42
2023/03/06 07:13:17;;;;;;;13.53;11.37;;;4.60;99.90;;;;;;5032030;28;20529;-43
2023/03/06 07:15:42;;;;;;;13.20;11.00;;;4.70;99.90;;;;;;5033463;28;20464;-43
2023/03/06 07:18:08;;;;;;;15.53;10.73;;;4.70;99.90;;;;;;5034387;28;20184;-42
2023/03/06 07:20:34;;;;;;;15.97;13.03;;;4.80;99.90;;;;;;5034253;28;20170;-41
2023/03/06 07:23:00;;;;;;;13.63;11.97;;;4.80;99.90;;;;;;5034539;28;20238;-41
2023/03/06 07:25:26;;;;;;;15.70;11.23;;;4.80;99.90;;;;;;5035568;28;20460;-42
2023/03/06 07:27:52;;;;;;;16.07;10.30;;;4.90;99.90;;;;;;5034191;28;20357;-42
2023/03/06 07:30:18;;;;;;;16.83;11.97;;;4.90;99.90;;;;;;5035739;28;20844;-43
2023/03/06 07:32:44;;;;;;;15.10;11.77;;;4.90;99.90;;;;;;5037288;28;20465;-43
2023/03/06 07:35:16;;;;;;;13.60;11.70;;;4.90;95.70;;;;;;5035964;28;20512;-43
2023/03/06 07:37:42;;;;;;;14.87;11.30;;;5.00;93.80;;;;;;5036844;28;20179;-42
2023/03/06 07:40:08;;;;;;;12.50;9.73;;;5.10;80.50;;;;;;5034357;28;20516;-44
2023/03/06 07:42:34;;;;;;;15.23;10.87;;;5.10;60.80;;;;;;5034603;28;20473;-43
2023/03/06 07:45:00;;;;;;;14.97;12.17;;;5.30;54.90;;;;;;5034693;28;20806;-42
2023/03/06 07:47:26;;;;;;;14.07;10.73;;;5.30;42.70;;;;;;5035007;28;20496;-46
2023/03/06 07:49:55;;;;;;;14.23;11.70;;;5.40;27.40;;;;;;5035242;28;20194;-42
2023/03/06 07:52:22;;;;;;;12.73;11.20;;;5.50;14.60;;;;;;5033627;28;20178;-43
2023/03/06 07:54:48;;;;;;;13.30;11.17;;;5.60;4.80;;;;;;5032351;28;20445;-43
2023/03/06 07:57:14;;;;;;;13.50;10.90;;;5.70;1.00;;;;;;5034943;28;20435;-42
2023/03/06 07:59:39;;;;;;;17.27;11.80;;;5.80;1.00;;;;;;5032339;28;20182;-42
2023/03/06 08:02:05;;;;;;;17.60;10.67;;;5.90;1.00;;;;;;5030607;28;20469;-42
2023/03/06 08:04:31;;;;;;;12.37;11.07;;;6.00;1.00;;;;;;5031775;28;20553;-42
2023/03/06 08:06:58;;;;;;;13.07;10.50;;;6.20;1.00;;;;;;5030792;28;20374;-42
2023/03/06 08:09:24;;;;;;;13.37;10.67;;;6.30;1.00;;;;;;5047162;28;20638;-41
2023/03/06 08:11:50;;;;;;;12.07;9.90;;;6.50;1.00;;;;;;5064443;28;20469;-42
2023/03/06 08:14:16;;;;;;;13.73;11.97;;;6.60;1.00;;;;;;5031414;28;20421;-43
2023/03/06 08:16:42;;;;;;;14.60;11.70;;;6.80;1.00;;;;;;5032605;28;20166;-41
2023/03/06 08:19:07;;;;;;;15.17;10.70;;;6.90;1.00;;;;;;5033367;28;20175;-40
2023/03/06 08:21:33;;;;;;;13.30;10.60;;;7.00;1.00;;;;;;5032993;28;20535;-41
2023/03/06 08:23:59;;;;;;;12.77;10.23;;;7.20;1.00;;;;;;5033683;28;20438;-41
2023/03/06 08:26:27;;;;;;;13.40;10.40;;;7.40;1.00;;;;;;5034046;28;20167;-42
2023/03/06 08:28:55;;;;;;;13.23;10.53;;;7.50;1.00;;;;;;5030104;28;20265;-41
2023/03/06 08:31:31;;;;;;;12.17;10.13;;;7.70;1.00;;;;;;5032789;28;20436;-43
2023/03/06 08:33:58;;;;;;;11.37;9.43;;;7.90;1.00;;;;;;5064646;28;20433;-41
2023/03/06 08:36:24;;;;;;;11.73;9.07;;;8.10;1.00;;;;;;5031947;28;20425;-41
2023/03/06 08:38:50;;;;;;;12.47;9.60;;;8.30;1.00;;;;;;5031538;28;20421;-44
2023/03/06 08:41:16;;;;;;;12.53;9.33;;;8.50;1.00;;;;;;5031013;28;20198;-41
2023/03/06 08:43:42;;;;;;;10.50;9.07;;;8.70;1.00;;;;;;5031781;28;20587;-42
2023/03/06 08:46:09;;;;;;;13.50;5.67;;;8.80;1.00;;;;;;5031840;28;20487;-45
2023/03/06 08:48:35;;;;;;;11.00;6.20;;;9.90;1.00;;;;;;5028916;28;20193;-46
2023/03/06 08:51:01;;;;;;;8.10;6.30;;;10.80;99.90;;;;;;5030457;28;20417;-41
2023/03/06 08:53:27;;;;;;;7.90;7.10;;;11.60;80.40;;;;;;5031529;28;20206;-44
2023/03/06 08:55:56;;;;;;;11.53;8.90;;;12.00;1.00;;;;;;5033676;28;20183;-45
2023/03/06 08:58:22;;;;;;;11.53;10.10;;;12.10;99.90;;;;;;5033581;28;20397;-43
2023/03/06 09:00:50;;;;;;;9.70;8.67;;;11.90;1.00;;;;;;5034920;28;20428;-41
2023/03/06 09:03:16;;;;;;;10.53;7.63;;;11.60;1.00;;;;;;5034959;28;20181;-42
2023/03/06 09:05:42;;;;;;;8.80;7.90;;;11.30;1.00;;;;;;5034717;28;20420;-42
2023/03/06 09:08:08;;;;;;;8.33;7.40;;;11.10;1.00;;;;;;5033288;28;20428;-42
2023/03/06 09:10:34;;;;;;;9.73;8.47;;;10.90;1.00;;;;;;5032975;28;20300;-41
2023/03/06 09:12:59;;;;;;;9.77;8.40;;;10.80;1.00;;;;;;5032779;28;20834;-41
2023/03/06 09:15:28;;;;;;;9.20;8.30;;;10.80;1.00;;;;;;5032788;28;20448;-41
2023/03/06 09:17:54;;;;;;;8.40;7.40;;;10.70;1.00;;;;;;5033911;28;20288;-42
2023/03/06 09:20:20;;;;;;;8.23;7.40;;;10.70;1.00;;;;;;5032068;28;20787;-42
2023/03/06 09:22:46;;;;;;;8.80;7.60;;;10.70;1.00;;;;;;5035511;28;20201;-41
2023/03/06 09:25:12;;;;;;;7.10;6.40;;;10.60;1.00;;;;;;5034699;28;20426;-42
2023/03/06 09:27:39;;;;;;;7.53;6.60;;;10.60;1.00;;;;;;5040046;28;20519;-42
2023/03/06 09:30:06;;;;;;;7.73;6.93;;;10.50;1.00;;;;;;5039001;28;20464;-43
2023/03/06 09:32:31;;;;;;;7.97;7.17;;;10.40;1.00;;;;;;5038511;28;20535;-42
2023/03/06 09:34:57;;;;;;;8.03;7.23;;;10.30;1.00;;;;;;5036485;28;20858;-42
2023/03/06 09:37:23;;;;;;;8.13;7.33;;;10.20;1.00;;;;;;5036537;28;20181;-43
2023/03/06 09:39:49;;;;;;;5.60;3.10;;;10.00;1.00;;;;;;5034245;28;20464;-47
2023/03/06 09:42:17;;;;;;;5.60;4.77;;;10.70;1.00;;;;;;5034801;28;20369;-43
2023/03/06 09:44:50;;;;;;;6.67;5.93;;;11.20;99.90;;;;;;5036120;28;20242;-41
2023/03/06 09:47:30;;;;;;;8.10;6.80;;;11.40;1.00;;;;;;5037422;28;20721;-42
2023/03/06 09:50:03;;;;;;;8.37;7.57;;;11.30;47.40;;;;;;5035925;28;20937;-43
2023/03/06 09:52:35;;;;;;;7.77;6.97;;;11.20;1.00;;;;;;5036395;28;20439;-42
2023/03/06 09:55:08;;;;;;;10.40;6.47;;;11.00;1.00;;;;;;5037674;28;20464;-42
2023/03/06 09:57:37;;;;;;;8.17;6.93;;;10.80;1.00;;;;;;5036838;28;20433;-42
2023/03/06 10:00:10;;;;;;;14.80;7.63;;;10.60;1.00;;;;;;5037973;28;20425;-43
2023/03/06 10:02:45;;;;;;;7.67;6.87;;;10.50;1.00;;;;;;5038013;28;20483;-45
2023/03/06 10:05:22;;;;;;;9.47;7.90;;;10.30;1.00;;;;;;5038097;28;20412;-42
2023/03/06 10:08:02;;;;;;;8.00;6.80;;;10.20;1.00;;;;;;5037916;28;20460;-43
2023/03/06 10:10:42;;;;;;;7.80;6.83;;;10.00;1.00;;;;;;5038660;28;20676;-42
2023/03/06 10:13:36;;;;;;;6.63;6.03;;;9.80;1.00;;;;;;5036872;28;20466;-41
2023/03/06 10:16:25;;;;;;;8.57;7.00;;;9.60;1.00;;;;;;5037575;28;20424;-40
2023/03/06 10:18:52;;;;;;;8.33;7.13;;;9.40;1.00;;;;;;5037401;28;20421;-41
2023/03/06 10:21:51;;;;;;;9.40;8.00;;;9.40;1.00;;;;;;5035929;28;20480;-42
2023/03/06 10:24:25;;;;;;;7.77;6.97;;;9.30;1.00;;;;;;5018216;28;20755;-40
2023/03/06 10:26:59;;;;;;;8.93;7.87;;;9.30;1.00;;;;;;5037666;28;20638;-42
2023/03/06 10:29:36;;;;;;;7.87;7.07;;;9.20;1.00;;;;;;5038857;28;20657;-41
2023/03/06 10:32:35;;;;;;;7.70;6.90;;;9.30;1.00;;;;;;5038501;28;20456;-43
2023/03/06 10:35:01;;;;;;;8.53;7.43;;;9.30;1.00;;;;;;5021977;28;20425;-44
2023/03/06 10:37:30;;;;;;;8.47;7.40;;;9.30;1.00;;;;;;5035659;28;20429;-42
2023/03/06 10:40:07;;;;;;;7.83;6.70;;;9.30;1.00;;;;;;5036540;28;20194;-43
2023/03/06 10:42:33;;;;;;;8.10;7.30;;;9.40;1.00;;;;;;5035903;28;20777;-42
2023/03/06 10:45:15;;;;;;;9.17;7.67;;;9.40;1.00;;;;;;5037954;28;20740;-43
2023/03/06 10:47:41;;;;;;;8.73;7.83;;;9.40;1.00;;;;;;5037369;28;20447;-43
2023/03/06 10:50:36;;;;;;;8.93;7.60;;;9.30;1.00;;;;;;5037144;28;20816;-42
2023/03/06 10:53:05;;;;;;;8.33;7.47;;;9.30;1.00;;;;;;5023355;28;20460;-43
2023/03/06 10:55:36;;;;;;;9.83;8.80;;;9.30;1.00;;;;;;5038125;28;20413;-42
2023/03/06 10:58:25;;;;;;;9.43;8.47;;;9.30;1.00;;;;;;5037765;28;20819;-42
2023/03/06 11:01:10;;;;;;;8.73;7.43;;;9.30;1.00;;;;;;5036687;28;20590;-43
2023/03/06 11:03:36;;;;;;;8.90;7.70;;;9.20;1.00;;;;;;5036640;28;20417;-43
2023/03/06 11:06:09;;;;;;;9.40;7.60;;;9.30;1.00;;;;;;5035783;28;20536;-43
2023/03/06 11:08:35;;;;;;;9.60;8.20;;;9.30;1.00;;;;;;5018470;28;20434;-44
2023/03/06 11:11:11;;;;;;;10.57;8.37;;;9.30;1.00;;;;;;5034040;28;20436;-42
2023/03/06 11:13:38;;;;;;;8.50;7.60;;;9.30;1.00;;;;;;5033050;28;20412;-41
2023/03/06 11:16:16;;;;;;;8.23;6.77;;;9.30;1.00;;;;;;5032578;28;20437;-43
2023/03/06 11:18:58;;;;;;;8.97;7.30;;;9.40;1.00;;;;;;5028216;28;20433;-42
2023/03/06 11:21:34;;;;;;;10.40;8.30;;;9.50;1.00;;;;;;5017636;28;20566;-42
2023/03/06 11:24:09;;;;;;;9.53;7.77;;;9.60;1.00;;;;;;5016154;28;20489;-43
2023/03/06 11:26:48;;;;;;;8.70;6.30;;;9.60;1.00;;;;;;5030441;28;20964;-42
2023/03/06 11:29:34;;;;;;;9.53;8.40;;;9.80;1.00;;;;;;5030299;28;20474;-42
2023/03/06 11:32:28;;;;;;;8.17;6.73;;;9.90;1.00;;;;;;5033649;28;20844;-44
2023/03/06 11:35:19;;;;;;;8.23;6.20;;;10.10;1.00;;;;;;5016056;28;21014;-42
2023/03/06 11:37:45;;;;;;;7.87;7.07;;;10.30;1.00;;;;;;5017022;28;20437;-43
2023/03/06 11:40:13;;;;;;;9.00;7.57;;;10.60;1.00;;;;;;5030187;28;20440;-44
2023/03/06 11:43:12;;;;;;;7.83;7.10;;;10.90;1.00;;;;;;5014454;28;21047;-41
2023/03/06 11:45:41;;;;;;;10.03;7.80;;;11.40;1.00;;;;;;5015042;28;20623;-43
2023/03/06 11:48:13;;;;;;;7.17;6.30;;;11.70;1.00;;;;;;5013758;28;20422;-42
2023/03/06 11:50:54;;;;;;;7.50;6.80;;;12.10;1.00;;;;;;5014859;28;20402;-43
2023/03/06 11:53:35;;;;;;;8.20;6.60;;;12.40;1.00;;;;;;5031534;28;20418;-42
2023/03/06 11:56:18;;;;;;;8.03;7.10;;;12.60;1.00;;;;;;5033224;28;20426;-42
2023/03/06 11:59:10;;;;;;;8.17;7.37;;;12.90;1.00;;;;;;5014981;28;20444;-42
2023/03/06 12:01:46;;;;;;;8.37;7.17;;;13.00;1.00;;;;;;5013615;28;20482;-43
2023/03/06 12:04:14;;;;;;;7.60;6.33;;;13.20;1.00;;;;;;5013441;28;20409;-42
2023/03/06 12:07:11;;;;;;;7.40;6.70;;;13.50;1.00;;;;;;5013186;28;20442;-43
2023/03/06 12:09:55;;;;;;;3.90;3.53;;;14.00;1.00;;;;;;5013060;28;20763;-43
2023/03/06 12:12:31;;;;;;;7.80;6.67;;;14.80;1.00;;;;;;5012351;28;20430;-42
2023/03/06 12:15:17;;;;;;;7.60;6.63;;;15.20;1.00;;;;;;5030091;28;20429;-44
2023/03/06 12:18:09;;;;;;;9.03;7.17;;;15.30;1.00;;;;;;5028614;28;20848;-44
2023/03/06 12:20:53;;;;;;;8.63;6.67;;;15.20;1.00;;;;;;4998540;28;20433;-43
2023/03/06 12:23:24;;;;;;;8.73;7.90;;;15.10;1.00;;;;;;5013169;28;20496;-42
2023/03/06 12:26:18;;;;;;;7.53;6.53;;;15.10;1.00;;;;;;5028958;28;20895;-42
2023/03/06 12:29:11;;;;;;;8.50;7.70;;;15.10;1.00;;;;;;5012015;28;20411;-45
2023/03/06 12:31:58;;;;;;;7.50;6.80;;;15.00;1.00;;;;;;5012169;28;20537;-43
2023/03/06 12:34:37;;;;;;;7.90;7.10;;;14.70;1.00;;;;;;5014725;28;20403;-43
2023/03/06 12:37:02;;;;;;;17.80;8.97;;;14.30;1.00;;;;;;5026623;28;20421;-45
2023/03/06 12:39:51;;;;;;;15.30;8.60;;;14.40;99.90;;;;;;5012841;28;20497;-45
2023/03/06 12:42:42;;;;;;;14.27;8.13;;;14.90;1.00;;;;;;5030929;28;20202;-45
2023/03/06 12:45:37;;;;;;;9.57;6.80;;;15.40;99.90;;;;;;5030417;28;20425;-44
2023/03/06 12:48:10;;;;;;;11.23;6.37;;;16.10;1.00;;;;;;5005460;28;20500;-44
2023/03/06 12:50:36;;;;;;;11.10;6.10;;;16.60;1.00;;;;;;5013855;28;20437;-46
2023/03/06 12:53:07;;;;;;;8.97;6.43;;;17.00;1.00;;;;;;5028350;28;20752;-43